Koen, Colorado
Current Conditions -  °F | °C
As of 11:53 PM on Sunday 23 Nov 2014 (Local Time) from KLAA Reporting Station
Clear Clear  
Wind Chill: 20°   Ceiling: Unl
Heat Index: 29°   Visibility: 10mi
Dew Point: 22°   Wind: 10mph
Humidity: 75%   Direction: 270°W
Pressure: 29.91"   Gusts: NA
Location:  37.8751°N, 102.389°W
Report Text: KLAA 240653Z AUTO 27009KT 10SM CLR M02/M06 A2991 RMK AO2 SLP127 T10171056 401001028
Loading
Personal Weather Stations






























Interactive Weather Map New forecast layout! Learn more

10-Day Weather Forecast

Advertisements
Track Severe Weather on mobile